WetterOnline ( https://www.wetteronline.de )

Wetter aktuell Hallenberg

Aktuelles Wetter: Kahler Asten (841m)

6-stündlich | Neueste Meldungen
Ortszeit Temperatur Wetter
Mi, 03.03. 19:00 7.6° C wolkenlos
Mi, 03.03. 13:00 11.4° C leicht bewölkt
Mi, 03.03. 7:00 6.6° C wolkig
Mi, 03.03. 1:00 6.6° C wolkenlos
Di, 02.03. 19:00 6.0° C wolkenlos
Di, 02.03. 13:00 9.0° C wolkenlos
Di, 02.03. 7:00 3.6° C wolkenlos
Di, 02.03. 1:00 5.5° C wolkenlos
Ortszeit Temperatur Wetter
Mi, 03.03. 23:00 6.2° C wolkig
Mi, 03.03. 22:50 6.2° C wolkig
Mi, 03.03. 22:40 6.2° C wolkig
Mi, 03.03. 22:30 6.2° C wolkig
Mi, 03.03. 22:20 6.2° C wolkig
Mi, 03.03. 22:10 6.4° C bewölkt
Mi, 03.03. 22:00 6.4° C leicht bewölkt
Mi, 03.03. 21:30 6.5° C wolkenlos
Mi, 03.03. 21:00 6.6° C wolkenlos
Mi, 03.03. 20:30 6.9° C wolkenlos
Mi, 03.03. 20:00 7.2° C leicht bewölkt
Ortszeit Relative Feuchte Sichtweite
Mi, 03.03. 19:00 69% 28 km
Mi, 03.03. 13:00 50% 30 km
Mi, 03.03. 7:00 46% 50 km
Mi, 03.03. 1:00 51% 50 km
Di, 02.03. 19:00 69% 50 km
Di, 02.03. 13:00 47% >70 km
Di, 02.03. 7:00 71% 45 km
Di, 02.03. 1:00 69% 60 km
Ortszeit Relative Feuchte Sichtweite
Mi, 03.03. 23:00 74% 17 km
Mi, 03.03. 22:50 74% -
Mi, 03.03. 22:40 74% -
Mi, 03.03. 22:30 74% 18 km
Mi, 03.03. 22:20 74% -
Mi, 03.03. 22:10 73% -
Mi, 03.03. 22:00 73% 19 km
Mi, 03.03. 21:30 72% 20 km
Mi, 03.03. 21:00 71% 21 km
Mi, 03.03. 20:30 70% 26 km
Mi, 03.03. 20:00 69% 27 km
Ortszeit Niederschlagsmenge Niederschlagsart
Mi, 03.03. 19:00 0.0 l/m2 in 12 Std. -
Mi, 03.03. 13:00 0.0 l/m2 in 6 Std. -
Mi, 03.03. 7:00 0.0 l/m2 in 12 Std. -
Mi, 03.03. 1:00 0.0 l/m2 in 6 Std. -
Di, 02.03. 19:00 0.0 l/m2 in 12 Std. -
Di, 02.03. 13:00 0.0 l/m2 in 6 Std. -
Di, 02.03. 7:00 0.0 l/m2 in 12 Std. -
Di, 02.03. 1:00 0.0 l/m2 in 6 Std. -
Ortszeit Niederschlagsmenge Niederschlagsart
Mi, 03.03. 23:00 0.0 l/m2 in 1 Std. -
Mi, 03.03. 22:50 keine Meldung -
Mi, 03.03. 22:40 keine Meldung -
Mi, 03.03. 22:30 0.0 l/m2 in 1 Std. -
Mi, 03.03. 22:20 keine Meldung -
Mi, 03.03. 22:10 keine Meldung -
Mi, 03.03. 22:00 0.0 l/m2 in 1 Std. -
Mi, 03.03. 21:30 0.0 l/m2 in 1 Std. -
Mi, 03.03. 21:00 0.0 l/m2 in 1 Std. -
Mi, 03.03. 20:30 0.0 l/m2 in 1 Std. -
Mi, 03.03. 20:00 0.0 l/m2 in 1 Std. -
Ortszeit Stärke Spitze Richtung
km/h Bft. km/h Grad Sektor
Mi, 03.03. 19:00 20 4 35 270° W
Mi, 03.03. 13:00 18 3 29 260° W
Mi, 03.03. 7:00 14 3 25 240° SW
Mi, 03.03. 1:00 15 3 19 220° SW
Di, 02.03. 19:00 13 3 35 160° S
Di, 02.03. 13:00 18 3 32 130° SO
Di, 02.03. 7:00 22 4 37 170° S
Di, 02.03. 1:00 28 4 39 140° SO
Ortszeit Stärke Spitze Richtung
km/h Bft. km/h Grad Sektor
Mi, 03.03. 23:00 20 4 35 280° W
Mi, 03.03. 22:50 20 4 - 280° W
Mi, 03.03. 22:40 22 4 - 280° W
Mi, 03.03. 22:30 22 4 35 270° W
Mi, 03.03. 22:20 22 4 - 270° W
Mi, 03.03. 22:10 22 4 - 280° W
Mi, 03.03. 22:00 22 4 32 280° W
Mi, 03.03. 21:30 22 4 32 280° W
Mi, 03.03. 21:00 22 4 32 280° W
Mi, 03.03. 20:30 22 4 32 270° W
Mi, 03.03. 20:00 20 4 31 270° W
Ortszeit Untergrenze Bedeckung Gattung
total tief tief mittel hoch
Mi, 03.03. 19:00 - 0/8 0/8 - - -
Mi, 03.03. 13:00 3000 m 3/8 3/8 - - -
Mi, 03.03. 7:00 7500 m 7/8 0/8 - - -
Mi, 03.03. 1:00 - 0/8 0/8 - - -
Di, 02.03. 19:00 - 0/8 0/8 - - -
Di, 02.03. 13:00 - 0/8 0/8 - - -
Di, 02.03. 7:00 - 0/8 0/8 - - -
Di, 02.03. 1:00 - 0/8 0/8 - - -
Ortszeit Bedeckungsgrad in Achtel und Wolkenuntergrenze
Mi, 03.03. 23:00 8(8100m)
Mi, 03.03. 22:50 8(8100m)
Mi, 03.03. 22:40 8(8100m)
Mi, 03.03. 22:30 3(3000m) 7(8400m) 8(8700m)
Mi, 03.03. 22:20 3(3000m) 7(8400m) 8(8700m)
Mi, 03.03. 22:10 4(3000m) 8(8700m)
Mi, 03.03. 22:00 1(3300m) 5(8700m)
Mi, 03.03. 21:30 keine Wolken
Mi, 03.03. 21:00 keine Wolken
Mi, 03.03. 20:30 keine Wolken
Mi, 03.03. 20:00 3(8700m) 3(9000m)
Ortszeit Stationsdruck (hPa) Tendenz (hPa in 3 Std.)
Mi, 03.03. 19:00 925 - 0,6
Mi, 03.03. 13:00 927 - 0,9
Mi, 03.03. 7:00 928 - 0,8
Mi, 03.03. 1:00 929 - 0,7
Di, 02.03. 19:00 930 - 0,2
Di, 02.03. 13:00 931 - 0,1
Di, 02.03. 7:00 930 0,0
Di, 02.03. 1:00 931 0,0
Ortszeit Stationsdruck (hPa) Tendenz (hPa in 3 Std.)
Mi, 03.03. 23:00 924 - 1,1
Mi, 03.03. 22:50 924 keine Meldung
Mi, 03.03. 22:40 924 keine Meldung
Mi, 03.03. 22:30 924 - 1,2
Mi, 03.03. 22:20 924 keine Meldung
Mi, 03.03. 22:10 924 keine Meldung
Mi, 03.03. 22:00 924 - 1,3
Mi, 03.03. 21:30 924 - 1,1
Mi, 03.03. 21:00 924 - 0,8
Mi, 03.03. 20:30 925 - 0,6
Mi, 03.03. 20:00 925 - 0,7
Ortszeit Schneehöhe (cm)
Mi, 03.03. 19:00 0
Mi, 03.03. 13:00 0
Mi, 03.03. 7:00 0
Mi, 03.03. 1:00 0
Di, 02.03. 19:00 0
Di, 02.03. 13:00 0
Di, 02.03. 7:00 0
Di, 02.03. 1:00 0
Ortszeit Schneehöhe (cm)
Mi, 03.03. 23:00 0
Mi, 03.03. 22:50 0
Mi, 03.03. 22:40 0
Mi, 03.03. 22:30 0
Mi, 03.03. 22:20 0
Mi, 03.03. 22:10 0
Mi, 03.03. 22:00 0
Mi, 03.03. 21:30 0
Mi, 03.03. 21:00 0
Mi, 03.03. 20:30 0
Mi, 03.03. 20:00 0
Link zu dieser Seite / Seite empfehlen

Das Wetter in ...